OAL792 ENSG-ENRM
Flight info
| Callsign | OAL792 |
|---|---|
| Flight time | 1h 27m |
| Altitude | 25000 |
| Route | UVEPI Z200 EKRUX DCT MIKDA |
| Aircraft | PC12/L-SDFGRWY/S |
Departure
| Time | 2026-05-05 21:33 |
|---|---|
| Airport | Sogndal Airport, Haukåsen (ENSG) |
Arrival
| Time | 2026-05-05 23:01 |
|---|---|
| Airport | Rørvik Airport, Ryum (ENRM) |
| Time | Latitude | Longitude | Altitude | Speed | Heading |
|---|---|---|---|---|---|
| 2026-05-05 21:25 | 61.15774 | 7.13914 | 1640 ft | 0 kts | 223° |
| 2026-05-05 21:29 | 61.15761 | 7.13889 | 1640 ft | 6 kts | 224° |
| 2026-05-05 21:29 | 61.15757 | 7.13880 | 1640 ft | 0 kts | 224° |
| 2026-05-05 21:29 | 61.15756 | 7.13880 | 1640 ft | 0 kts | 224° |
| 2026-05-05 21:30 | 61.15747 | 7.13870 | 1639 ft | 5 kts | 189° |
| 2026-05-05 21:30 | 61.15724 | 7.13879 | 1637 ft | 0 kts | 154° |
| 2026-05-05 21:31 | 61.15681 | 7.13952 | 1636 ft | 12 kts | 86° |
| 2026-05-05 21:31 | 61.15736 | 7.14153 | 1638 ft | 20 kts | 59° |
| 2026-05-05 21:31 | 61.15806 | 7.14398 | 1637 ft | 13 kts | 58° |
| 2026-05-05 21:31 | 61.15820 | 7.14469 | 1635 ft | 1 kts | 229° |
| 2026-05-05 21:32 | 61.15817 | 7.14460 | 1636 ft | 0 kts | 240° |
| 2026-05-05 21:32 | 61.15775 | 7.14312 | 1638 ft | 34 kts | 240° |
| 2026-05-05 21:32 | 61.15568 | 7.13579 | 1632 ft | 80 kts | 238° |
| 2026-05-05 21:32 | 61.15215 | 7.12568 | 1753 ft | 91 kts | 236° |
| 2026-05-05 21:33 | 61.14861 | 7.11450 | 1953 ft | 95 kts | 244° |
| 2026-05-05 21:33 | 61.14550 | 7.10230 | 2160 ft | 98 kts | 246° |
| 2026-05-05 21:33 | 61.14335 | 7.09364 | 2306 ft | 102 kts | 247° |
| 2026-05-05 21:33 | 61.14035 | 7.08113 | 2659 ft | 95 kts | 247° |
| 2026-05-05 21:34 | 61.13761 | 7.06764 | 2872 ft | 108 kts | 254° |
| 2026-05-05 21:34 | 61.13561 | 7.05468 | 3417 ft | 87 kts | 244° |
| 2026-05-05 21:34 | 61.13304 | 7.04342 | 3670 ft | 86 kts | 263° |
| 2026-05-05 21:34 | 61.13334 | 7.03112 | 3901 ft | 86 kts | 274° |
| 2026-05-05 21:35 | 61.13424 | 7.01899 | 4151 ft | 86 kts | 283° |
| 2026-05-05 21:35 | 61.13561 | 7.00697 | 4407 ft | 86 kts | 282° |
| 2026-05-05 21:35 | 61.13694 | 6.99485 | 4669 ft | 86 kts | 283° |
| 2026-05-05 21:35 | 61.13824 | 6.98269 | 4888 ft | 87 kts | 283° |
| 2026-05-05 21:36 | 61.13953 | 6.97050 | 5113 ft | 87 kts | 282° |
| 2026-05-05 21:36 | 61.14082 | 6.95806 | 5286 ft | 96 kts | 283° |
| 2026-05-05 21:36 | 61.14249 | 6.94231 | 5293 ft | 126 kts | 283° |
| 2026-05-05 21:36 | 61.14448 | 6.92336 | 5458 ft | 140 kts | 282° |
| 2026-05-05 21:37 | 61.14650 | 6.90376 | 5818 ft | 138 kts | 282° |
| 2026-05-05 21:37 | 61.14850 | 6.88419 | 6145 ft | 141 kts | 282° |
| 2026-05-05 21:37 | 61.15051 | 6.86441 | 6617 ft | 139 kts | 282° |
| 2026-05-05 21:37 | 61.15250 | 6.84474 | 7070 ft | 140 kts | 283° |
| 2026-05-05 21:38 | 61.15452 | 6.82496 | 7526 ft | 140 kts | 283° |
| 2026-05-05 21:38 | 61.15653 | 6.80515 | 7988 ft | 141 kts | 283° |
| 2026-05-05 21:38 | 61.15854 | 6.78528 | 8472 ft | 141 kts | 283° |
| 2026-05-05 21:38 | 61.16055 | 6.76539 | 8959 ft | 142 kts | 283° |
| 2026-05-05 21:39 | 61.16257 | 6.74543 | 9452 ft | 142 kts | 283° |
| 2026-05-05 21:39 | 61.16459 | 6.72539 | 9940 ft | 142 kts | 283° |
| 2026-05-05 21:39 | 61.16661 | 6.70529 | 10395 ft | 143 kts | 283° |
| 2026-05-05 21:39 | 61.16884 | 6.68330 | 10899 ft | 142 kts | 284° |
| 2026-05-05 21:40 | 61.17339 | 6.66535 | 11355 ft | 144 kts | 312° |
| 2026-05-05 21:40 | 61.18199 | 6.65470 | 11831 ft | 149 kts | 340° |
| 2026-05-05 21:40 | 61.19254 | 6.65501 | 12284 ft | 157 kts | 7° |
| 2026-05-05 21:40 | 61.20327 | 6.66051 | 12729 ft | 159 kts | 7° |
| 2026-05-05 21:41 | 61.21408 | 6.66608 | 13193 ft | 160 kts | 7° |
| 2026-05-05 21:41 | 61.22494 | 6.67164 | 13675 ft | 161 kts | 7° |
| 2026-05-05 21:41 | 61.23588 | 6.67724 | 14107 ft | 163 kts | 6° |
| 2026-05-05 21:41 | 61.24694 | 6.68289 | 14548 ft | 165 kts | 6° |
| 2026-05-05 21:42 | 61.25810 | 6.68861 | 14981 ft | 166 kts | 6° |
| 2026-05-05 21:42 | 61.26935 | 6.69438 | 15428 ft | 167 kts | 6° |
| 2026-05-05 21:42 | 61.28073 | 6.70022 | 15864 ft | 169 kts | 6° |
| 2026-05-05 21:43 | 61.30413 | 6.71225 | 16750 ft | 172 kts | 6° |
| 2026-05-05 21:43 | 61.31579 | 6.71824 | 17216 ft | 174 kts | 5° |
| 2026-05-05 21:43 | 61.32759 | 6.72431 | 17628 ft | 175 kts | 5° |
| 2026-05-05 21:43 | 61.33946 | 6.73042 | 18088 ft | 177 kts | 5° |
| 2026-05-05 21:44 | 61.35146 | 6.73660 | 18489 ft | 178 kts | 5° |
| 2026-05-05 21:44 | 61.36355 | 6.74283 | 18855 ft | 180 kts | 4° |
| 2026-05-05 21:44 | 61.37574 | 6.74912 | 19241 ft | 181 kts | 3° |
| 2026-05-05 21:44 | 61.38803 | 6.75547 | 19657 ft | 182 kts | 3° |
| 2026-05-05 21:45 | 61.40043 | 6.76188 | 20076 ft | 185 kts | 2° |
| 2026-05-05 21:45 | 61.41297 | 6.76836 | 20531 ft | 186 kts | 2° |
| 2026-05-05 21:45 | 61.42563 | 6.77492 | 20952 ft | 188 kts | 1° |
| 2026-05-05 21:45 | 61.43839 | 6.78154 | 21355 ft | 190 kts | 0° |
| 2026-05-05 21:46 | 61.45126 | 6.78820 | 21683 ft | 192 kts | 1° |
| 2026-05-05 21:46 | 61.46431 | 6.79498 | 22049 ft | 192 kts | 0° |
| 2026-05-05 21:46 | 61.47735 | 6.80177 | 22450 ft | 194 kts | 359° |
| 2026-05-05 21:46 | 61.49055 | 6.80863 | 22809 ft | 196 kts | 359° |
| 2026-05-05 21:47 | 61.50405 | 6.81556 | 22980 ft | 208 kts | 360° |
| 2026-05-05 21:47 | 61.51875 | 6.82305 | 22983 ft | 226 kts | 1° |
| 2026-05-05 21:47 | 61.53432 | 6.83130 | 22981 ft | 235 kts | 2° |
| 2026-05-05 21:47 | 61.55018 | 6.83973 | 22985 ft | 241 kts | 2° |
| 2026-05-05 21:48 | 61.56647 | 6.84861 | 22983 ft | 244 kts | 6° |
| 2026-05-05 21:48 | 61.58215 | 6.86450 | 22990 ft | 254 kts | 19° |
| 2026-05-05 21:48 | 61.59762 | 6.88325 | 22988 ft | 254 kts | 19° |
| 2026-05-05 21:48 | 61.61295 | 6.90172 | 22987 ft | 255 kts | 19° |
| 2026-05-05 21:49 | 61.62832 | 6.92016 | 22998 ft | 254 kts | 19° |
| 2026-05-05 21:49 | 61.64352 | 6.93840 | 23001 ft | 255 kts | 20° |
| 2026-05-05 21:49 | 61.65899 | 6.95702 | 22998 ft | 257 kts | 20° |
| 2026-05-05 21:49 | 61.67454 | 6.97577 | 23000 ft | 258 kts | 20° |
| 2026-05-05 21:50 | 61.69008 | 6.99453 | 23002 ft | 258 kts | 20° |
| 2026-05-05 21:50 | 61.70563 | 7.01332 | 23006 ft | 258 kts | 20° |
| 2026-05-05 21:50 | 61.72122 | 7.03217 | 23005 ft | 258 kts | 20° |
| 2026-05-05 21:50 | 61.73686 | 7.05108 | 23005 ft | 261 kts | 21° |
| 2026-05-05 21:51 | 61.75261 | 7.07016 | 23001 ft | 262 kts | 21° |
| 2026-05-05 21:51 | 61.76844 | 7.08942 | 23001 ft | 262 kts | 21° |
| 2026-05-05 21:51 | 61.78417 | 7.10857 | 23009 ft | 260 kts | 21° |
| 2026-05-05 21:51 | 61.79990 | 7.12767 | 22994 ft | 261 kts | 21° |
| 2026-05-05 21:52 | 61.83128 | 7.16593 | 22993 ft | 259 kts | 21° |
| 2026-05-05 21:52 | 61.84676 | 7.18485 | 23010 ft | 256 kts | 21° |
| 2026-05-05 21:52 | 61.86225 | 7.20375 | 22997 ft | 257 kts | 21° |
| 2026-05-05 21:53 | 61.87775 | 7.22269 | 23005 ft | 258 kts | 21° |
| 2026-05-05 21:53 | 61.89324 | 7.24169 | 22997 ft | 257 kts | 21° |
| 2026-05-05 21:53 | 61.90873 | 7.26070 | 23001 ft | 257 kts | 21° |
| 2026-05-05 21:53 | 61.92418 | 7.27966 | 23002 ft | 257 kts | 22° |
| 2026-05-05 21:54 | 61.93966 | 7.29869 | 22989 ft | 257 kts | 22° |
| 2026-05-05 21:54 | 61.95513 | 7.31774 | 22989 ft | 257 kts | 22° |
| 2026-05-05 21:54 | 61.97052 | 7.33672 | 22992 ft | 255 kts | 22° |
| 2026-05-05 21:54 | 61.98590 | 7.35569 | 22979 ft | 256 kts | 22° |
| 2026-05-05 21:55 | 62.00130 | 7.37470 | 22982 ft | 256 kts | 22° |
| 2026-05-05 21:55 | 62.01667 | 7.39372 | 23017 ft | 254 kts | 22° |
| 2026-05-05 21:55 | 62.03174 | 7.41242 | 23233 ft | 250 kts | 22° |
| 2026-05-05 21:55 | 62.04677 | 7.43099 | 23435 ft | 250 kts | 22° |
| 2026-05-05 21:56 | 62.06181 | 7.44963 | 23617 ft | 250 kts | 22° |
| 2026-05-05 21:56 | 62.07679 | 7.46826 | 23787 ft | 250 kts | 22° |
| 2026-05-05 21:56 | 62.09183 | 7.48696 | 23956 ft | 250 kts | 22° |
| 2026-05-05 21:56 | 62.10694 | 7.50577 | 24127 ft | 252 kts | 22° |
| 2026-05-05 21:57 | 62.12213 | 7.52472 | 24296 ft | 253 kts | 22° |
| 2026-05-05 21:57 | 62.13736 | 7.54373 | 24466 ft | 254 kts | 22° |
| 2026-05-05 21:57 | 62.15264 | 7.56284 | 24643 ft | 255 kts | 22° |
| 2026-05-05 21:57 | 62.16795 | 7.58200 | 24809 ft | 255 kts | 22° |
| 2026-05-05 21:58 | 62.18325 | 7.60117 | 24959 ft | 256 kts | 22° |
| 2026-05-05 21:58 | 62.19892 | 7.62074 | 24960 ft | 264 kts | 22° |
| 2026-05-05 21:58 | 62.21497 | 7.64089 | 24964 ft | 270 kts | 22° |
| 2026-05-05 21:58 | 62.23130 | 7.66148 | 24969 ft | 274 kts | 23° |
| 2026-05-05 21:59 | 62.24790 | 7.68241 | 24970 ft | 278 kts | 23° |
| 2026-05-05 21:59 | 62.26463 | 7.70352 | 24972 ft | 279 kts | 23° |
| 2026-05-05 21:59 | 62.28125 | 7.72456 | 24974 ft | 275 kts | 23° |
| 2026-05-05 21:59 | 62.29765 | 7.74532 | 24970 ft | 272 kts | 23° |
| 2026-05-05 22:00 | 62.31395 | 7.76590 | 24965 ft | 271 kts | 23° |
| 2026-05-05 22:00 | 62.33012 | 7.78637 | 24967 ft | 269 kts | 23° |
| 2026-05-05 22:00 | 62.34619 | 7.80677 | 24966 ft | 267 kts | 23° |
| 2026-05-05 22:00 | 62.36218 | 7.82708 | 24972 ft | 267 kts | 23° |
| 2026-05-05 22:01 | 62.37821 | 7.84745 | 24970 ft | 267 kts | 23° |
| 2026-05-05 22:01 | 62.39420 | 7.86782 | 24966 ft | 266 kts | 23° |
| 2026-05-05 22:01 | 62.41005 | 7.88804 | 24968 ft | 266 kts | 23° |
| 2026-05-05 22:01 | 62.42061 | 7.90151 | 24964 ft | 265 kts | 23° |
| 2026-05-05 22:02 | 62.43645 | 7.92175 | 24971 ft | 265 kts | 23° |
| 2026-05-05 22:02 | 62.45229 | 7.94202 | 24970 ft | 265 kts | 23° |
| 2026-05-05 22:02 | 62.46816 | 7.96234 | 24972 ft | 265 kts | 23° |
| 2026-05-05 22:02 | 62.48380 | 7.98239 | 24959 ft | 265 kts | 23° |
| 2026-05-05 22:03 | 62.49982 | 8.00297 | 24968 ft | 265 kts | 23° |
| 2026-05-05 22:03 | 62.51567 | 8.02334 | 24965 ft | 265 kts | 23° |
| 2026-05-05 22:03 | 62.53148 | 8.04370 | 24961 ft | 264 kts | 23° |
| 2026-05-05 22:03 | 62.54722 | 8.06399 | 24972 ft | 263 kts | 23° |
| 2026-05-05 22:04 | 62.56298 | 8.08432 | 24961 ft | 263 kts | 23° |
| 2026-05-05 22:04 | 62.57869 | 8.10463 | 24960 ft | 262 kts | 24° |
| 2026-05-05 22:04 | 62.59430 | 8.12484 | 24964 ft | 261 kts | 23° |
| 2026-05-05 22:04 | 62.60991 | 8.14505 | 24968 ft | 261 kts | 23° |
| 2026-05-05 22:05 | 62.62549 | 8.16524 | 24969 ft | 261 kts | 23° |
| 2026-05-05 22:05 | 62.64111 | 8.18552 | 24969 ft | 262 kts | 24° |
| 2026-05-05 22:05 | 62.65676 | 8.20586 | 24970 ft | 262 kts | 24° |
| 2026-05-05 22:05 | 62.67246 | 8.22630 | 24960 ft | 263 kts | 24° |
| 2026-05-05 22:06 | 62.68811 | 8.24672 | 24959 ft | 262 kts | 24° |
| 2026-05-05 22:06 | 62.70378 | 8.26716 | 24962 ft | 263 kts | 24° |
| 2026-05-05 22:06 | 62.71941 | 8.28759 | 24962 ft | 261 kts | 24° |
| 2026-05-05 22:06 | 62.73498 | 8.30796 | 24968 ft | 261 kts | 24° |
| 2026-05-05 22:07 | 62.75054 | 8.32833 | 24968 ft | 261 kts | 24° |
| 2026-05-05 22:07 | 62.76614 | 8.34878 | 24964 ft | 261 kts | 24° |
| 2026-05-05 22:07 | 62.78168 | 8.36920 | 24966 ft | 261 kts | 24° |
| 2026-05-05 22:07 | 62.79725 | 8.38968 | 24962 ft | 262 kts | 24° |
| 2026-05-05 22:08 | 62.81282 | 8.41018 | 24969 ft | 261 kts | 24° |
| 2026-05-05 22:08 | 62.82843 | 8.43075 | 24958 ft | 262 kts | 24° |
| 2026-05-05 22:08 | 62.84400 | 8.45131 | 24963 ft | 261 kts | 24° |
| 2026-05-05 22:08 | 62.85954 | 8.47184 | 24965 ft | 261 kts | 24° |
| 2026-05-05 22:09 | 62.87486 | 8.49210 | 24960 ft | 261 kts | 24° |
| 2026-05-05 22:09 | 62.89036 | 8.51264 | 24961 ft | 260 kts | 24° |
| 2026-05-05 22:09 | 62.90585 | 8.53319 | 24964 ft | 260 kts | 24° |
| 2026-05-05 22:09 | 62.92134 | 8.55376 | 24960 ft | 260 kts | 24° |
| 2026-05-05 22:10 | 62.93681 | 8.57433 | 24958 ft | 260 kts | 25° |
| 2026-05-05 22:10 | 62.95229 | 8.59493 | 24970 ft | 260 kts | 25° |
| 2026-05-05 22:10 | 62.96778 | 8.61558 | 24965 ft | 261 kts | 25° |
| 2026-05-05 22:10 | 62.98324 | 8.63622 | 24958 ft | 260 kts | 25° |
| 2026-05-05 22:11 | 62.99871 | 8.65690 | 24966 ft | 260 kts | 25° |
| 2026-05-05 22:11 | 63.01416 | 8.67757 | 24962 ft | 260 kts | 25° |
| 2026-05-05 22:11 | 63.02960 | 8.69825 | 24968 ft | 260 kts | 25° |
| 2026-05-05 22:11 | 63.04505 | 8.71897 | 24962 ft | 260 kts | 25° |
| 2026-05-05 22:12 | 63.06050 | 8.73973 | 24965 ft | 260 kts | 25° |
| 2026-05-05 22:12 | 63.07592 | 8.76048 | 24958 ft | 259 kts | 25° |
| 2026-05-05 22:12 | 63.09132 | 8.78121 | 24955 ft | 259 kts | 25° |
| 2026-05-05 22:12 | 63.10669 | 8.80193 | 24962 ft | 259 kts | 25° |
| 2026-05-05 22:13 | 63.12204 | 8.82264 | 24957 ft | 258 kts | 26° |
| 2026-05-05 22:13 | 63.13739 | 8.84339 | 24959 ft | 259 kts | 26° |
| 2026-05-05 22:13 | 63.15274 | 8.86417 | 24958 ft | 258 kts | 26° |
| 2026-05-05 22:13 | 63.16809 | 8.88496 | 24956 ft | 259 kts | 26° |
| 2026-05-05 22:14 | 63.18344 | 8.90579 | 24950 ft | 259 kts | 26° |
| 2026-05-05 22:14 | 63.19879 | 8.92663 | 24957 ft | 259 kts | 26° |
| 2026-05-05 22:14 | 63.21411 | 8.94747 | 24955 ft | 258 kts | 26° |
| 2026-05-05 22:14 | 63.22943 | 8.96834 | 24953 ft | 258 kts | 26° |
| 2026-05-05 22:15 | 63.24476 | 8.98923 | 24950 ft | 259 kts | 26° |
| 2026-05-05 22:15 | 63.26009 | 9.01017 | 24948 ft | 258 kts | 26° |
| 2026-05-05 22:15 | 63.27539 | 9.03109 | 24953 ft | 258 kts | 27° |
| 2026-05-05 22:15 | 63.29064 | 9.05196 | 24952 ft | 258 kts | 27° |
| 2026-05-05 22:16 | 63.30595 | 9.07294 | 24951 ft | 258 kts | 27° |
| 2026-05-05 22:16 | 63.32097 | 9.09355 | 24946 ft | 257 kts | 27° |
| 2026-05-05 22:16 | 63.33619 | 9.11446 | 24946 ft | 257 kts | 27° |
| 2026-05-05 22:16 | 63.35140 | 9.13538 | 24947 ft | 257 kts | 27° |
| 2026-05-05 22:17 | 63.36661 | 9.15633 | 24945 ft | 257 kts | 27° |
| 2026-05-05 22:17 | 63.38182 | 9.17730 | 24943 ft | 257 kts | 27° |
| 2026-05-05 22:17 | 63.39702 | 9.19829 | 24942 ft | 257 kts | 27° |
| 2026-05-05 22:17 | 63.41181 | 9.22074 | 24941 ft | 258 kts | 32° |
| 2026-05-05 22:18 | 63.42623 | 9.24457 | 24937 ft | 258 kts | 32° |
| 2026-05-05 22:18 | 63.44070 | 9.26840 | 24933 ft | 258 kts | 32° |
| 2026-05-05 22:18 | 63.45516 | 9.29223 | 24936 ft | 258 kts | 32° |
| 2026-05-05 22:18 | 63.46963 | 9.31614 | 24931 ft | 259 kts | 32° |
| 2026-05-05 22:19 | 63.48408 | 9.34007 | 24931 ft | 258 kts | 33° |
| 2026-05-05 22:19 | 63.49853 | 9.36400 | 24928 ft | 258 kts | 33° |
| 2026-05-05 22:19 | 63.51294 | 9.38790 | 24922 ft | 258 kts | 33° |
| 2026-05-05 22:19 | 63.52734 | 9.41181 | 24924 ft | 258 kts | 33° |
| 2026-05-05 22:20 | 63.54174 | 9.43576 | 24925 ft | 258 kts | 33° |
| 2026-05-05 22:20 | 63.55612 | 9.45971 | 24924 ft | 258 kts | 33° |
| 2026-05-05 22:20 | 63.57054 | 9.48375 | 24925 ft | 258 kts | 33° |
| 2026-05-05 22:20 | 63.58494 | 9.50778 | 24919 ft | 258 kts | 33° |
| 2026-05-05 22:21 | 63.59930 | 9.53179 | 24919 ft | 258 kts | 33° |
| 2026-05-05 22:21 | 63.61368 | 9.55585 | 24919 ft | 257 kts | 33° |
| 2026-05-05 22:21 | 63.62802 | 9.57989 | 24918 ft | 257 kts | 33° |
| 2026-05-05 22:21 | 63.64236 | 9.60395 | 24919 ft | 257 kts | 33° |
| 2026-05-05 22:22 | 63.65669 | 9.62802 | 24921 ft | 257 kts | 33° |
| 2026-05-05 22:22 | 63.67100 | 9.65209 | 24920 ft | 257 kts | 33° |
| 2026-05-05 22:22 | 63.68529 | 9.67617 | 24919 ft | 257 kts | 33° |
| 2026-05-05 22:22 | 63.69959 | 9.70029 | 24922 ft | 257 kts | 33° |
| 2026-05-05 22:23 | 63.71385 | 9.72437 | 24920 ft | 257 kts | 34° |
| 2026-05-05 22:23 | 63.72814 | 9.74854 | 24921 ft | 257 kts | 34° |
| 2026-05-05 22:23 | 63.74245 | 9.77276 | 24920 ft | 257 kts | 34° |
| 2026-05-05 22:23 | 63.75676 | 9.79702 | 24923 ft | 257 kts | 34° |
| 2026-05-05 22:24 | 63.77088 | 9.82100 | 24920 ft | 257 kts | 34° |
| 2026-05-05 22:24 | 63.78518 | 9.84532 | 24922 ft | 257 kts | 34° |
| 2026-05-05 22:24 | 63.79949 | 9.86967 | 24924 ft | 257 kts | 34° |
| 2026-05-05 22:24 | 63.81379 | 9.89405 | 24923 ft | 257 kts | 34° |
| 2026-05-05 22:25 | 63.82809 | 9.91845 | 24919 ft | 257 kts | 34° |
| 2026-05-05 22:25 | 63.84239 | 9.94288 | 24915 ft | 257 kts | 34° |
| 2026-05-05 22:25 | 63.85667 | 9.96732 | 24915 ft | 257 kts | 34° |
| 2026-05-05 22:25 | 63.87096 | 9.99181 | 24912 ft | 257 kts | 34° |
| 2026-05-05 22:26 | 63.88522 | 10.01626 | 24915 ft | 257 kts | 34° |
| 2026-05-05 22:26 | 63.89950 | 10.04079 | 24911 ft | 257 kts | 34° |
| 2026-05-05 22:26 | 63.91375 | 10.06531 | 24911 ft | 257 kts | 34° |
| 2026-05-05 22:26 | 63.92802 | 10.08988 | 24909 ft | 257 kts | 34° |
| 2026-05-05 22:27 | 63.94227 | 10.11446 | 24910 ft | 257 kts | 34° |
| 2026-05-05 22:27 | 63.95651 | 10.13905 | 24909 ft | 257 kts | 34° |
| 2026-05-05 22:27 | 63.97075 | 10.16367 | 24904 ft | 257 kts | 34° |
| 2026-05-05 22:27 | 63.98501 | 10.18835 | 24906 ft | 258 kts | 34° |
| 2026-05-05 22:28 | 63.99927 | 10.21307 | 24903 ft | 257 kts | 34° |
| 2026-05-05 22:28 | 64.01351 | 10.23780 | 24907 ft | 257 kts | 34° |
| 2026-05-05 22:28 | 64.02773 | 10.26252 | 24901 ft | 257 kts | 34° |
| 2026-05-05 22:28 | 64.04200 | 10.28735 | 24900 ft | 257 kts | 34° |
| 2026-05-05 22:29 | 64.05623 | 10.31214 | 24897 ft | 257 kts | 34° |
| 2026-05-05 22:29 | 64.07044 | 10.33695 | 24900 ft | 257 kts | 34° |
| 2026-05-05 22:29 | 64.08462 | 10.36172 | 24900 ft | 257 kts | 34° |
| 2026-05-05 22:29 | 64.09885 | 10.38662 | 24895 ft | 257 kts | 34° |
| 2026-05-05 22:30 | 64.11313 | 10.41162 | 24739 ft | 259 kts | 34° |
| 2026-05-05 22:30 | 64.12714 | 10.43628 | 24502 ft | 249 kts | 34° |
| 2026-05-05 22:30 | 64.14054 | 10.45988 | 24302 ft | 237 kts | 34° |
| 2026-05-05 22:30 | 64.15329 | 10.48231 | 24104 ft | 225 kts | 34° |
| 2026-05-05 22:31 | 64.16548 | 10.50374 | 23767 ft | 221 kts | 34° |
| 2026-05-05 22:31 | 64.17770 | 10.52522 | 23358 ft | 220 kts | 34° |
| 2026-05-05 22:31 | 64.18977 | 10.54652 | 22908 ft | 218 kts | 34° |
| 2026-05-05 22:31 | 64.20158 | 10.56737 | 22473 ft | 216 kts | 34° |
| 2026-05-05 22:32 | 64.21337 | 10.58824 | 22035 ft | 214 kts | 34° |
| 2026-05-05 22:32 | 64.22515 | 10.60907 | 21597 ft | 212 kts | 34° |
| 2026-05-05 22:32 | 64.23673 | 10.62961 | 21173 ft | 210 kts | 34° |
| 2026-05-05 22:32 | 64.24825 | 10.65005 | 20749 ft | 208 kts | 35° |
| 2026-05-05 22:33 | 64.25965 | 10.67029 | 20349 ft | 206 kts | 34° |
| 2026-05-05 22:33 | 64.27092 | 10.69033 | 19954 ft | 204 kts | 34° |
| 2026-05-05 22:33 | 64.28190 | 10.70989 | 19699 ft | 196 kts | 35° |
| 2026-05-05 22:33 | 64.29250 | 10.72878 | 19431 ft | 189 kts | 34° |
| 2026-05-05 22:34 | 64.30359 | 10.74324 | 19167 ft | 179 kts | 14° |
| 2026-05-05 22:34 | 64.31552 | 10.75177 | 18803 ft | 180 kts | 14° |
| 2026-05-05 22:34 | 64.32742 | 10.76048 | 18500 ft | 178 kts | 14° |
| 2026-05-05 22:34 | 64.33902 | 10.76909 | 18178 ft | 177 kts | 14° |
| 2026-05-05 22:35 | 64.35088 | 10.77786 | 17822 ft | 176 kts | 15° |
| 2026-05-05 22:35 | 64.36254 | 10.78649 | 17468 ft | 175 kts | 14° |
| 2026-05-05 22:35 | 64.37412 | 10.79506 | 17105 ft | 174 kts | 14° |
| 2026-05-05 22:35 | 64.38564 | 10.80358 | 16761 ft | 174 kts | 13° |
| 2026-05-05 22:36 | 64.39712 | 10.81207 | 16410 ft | 173 kts | 14° |
| 2026-05-05 22:36 | 64.40865 | 10.82058 | 16171 ft | 173 kts | 14° |
| 2026-05-05 22:36 | 64.42005 | 10.82904 | 15925 ft | 173 kts | 14° |
| 2026-05-05 22:36 | 64.43148 | 10.83751 | 15734 ft | 172 kts | 14° |
| 2026-05-05 22:37 | 64.44285 | 10.84596 | 15531 ft | 171 kts | 13° |
| 2026-05-05 22:37 | 64.45418 | 10.85437 | 15327 ft | 171 kts | 14° |
| 2026-05-05 22:37 | 64.46543 | 10.86275 | 15066 ft | 169 kts | 14° |
| 2026-05-05 22:37 | 64.47665 | 10.87110 | 14710 ft | 170 kts | 14° |
| 2026-05-05 22:38 | 64.48786 | 10.87944 | 14435 ft | 169 kts | 14° |
| 2026-05-05 22:38 | 64.49903 | 10.88776 | 14170 ft | 169 kts | 13° |
| 2026-05-05 22:38 | 64.51018 | 10.89608 | 13924 ft | 168 kts | 14° |
| 2026-05-05 22:38 | 64.52129 | 10.90438 | 13661 ft | 168 kts | 13° |
| 2026-05-05 22:39 | 64.53238 | 10.91265 | 13379 ft | 167 kts | 13° |
| 2026-05-05 22:39 | 64.54338 | 10.92089 | 13113 ft | 166 kts | 13° |
| 2026-05-05 22:39 | 64.55434 | 10.92910 | 12840 ft | 165 kts | 13° |
| 2026-05-05 22:39 | 64.56523 | 10.93726 | 12565 ft | 164 kts | 13° |
| 2026-05-05 22:40 | 64.57611 | 10.94542 | 12304 ft | 164 kts | 13° |
| 2026-05-05 22:40 | 64.58693 | 10.95353 | 12076 ft | 163 kts | 13° |
| 2026-05-05 22:40 | 64.59771 | 10.96163 | 11849 ft | 162 kts | 14° |
| 2026-05-05 22:40 | 64.60843 | 10.96969 | 11629 ft | 162 kts | 13° |
| 2026-05-05 22:41 | 64.61916 | 10.97776 | 11393 ft | 162 kts | 13° |
| 2026-05-05 22:41 | 64.62984 | 10.98580 | 11146 ft | 161 kts | 13° |
| 2026-05-05 22:41 | 64.63992 | 10.99724 | 10878 ft | 165 kts | 35° |
| 2026-05-05 22:41 | 64.64834 | 11.01555 | 10634 ft | 165 kts | 39° |
| 2026-05-05 22:42 | 64.65669 | 11.03393 | 10400 ft | 165 kts | 38° |
| 2026-05-05 22:42 | 64.66501 | 11.05220 | 10133 ft | 164 kts | 39° |
| 2026-05-05 22:42 | 64.67330 | 11.07041 | 9864 ft | 163 kts | 39° |
| 2026-05-05 22:42 | 64.68156 | 11.08852 | 9580 ft | 162 kts | 39° |
| 2026-05-05 22:43 | 64.68978 | 11.10658 | 9282 ft | 162 kts | 39° |
| 2026-05-05 22:43 | 64.69796 | 11.12456 | 9000 ft | 161 kts | 39° |
| 2026-05-05 22:43 | 64.70613 | 11.14253 | 8726 ft | 161 kts | 39° |
| 2026-05-05 22:43 | 64.71423 | 11.16035 | 8458 ft | 160 kts | 39° |
| 2026-05-05 22:44 | 64.72232 | 11.17818 | 8208 ft | 160 kts | 39° |
| 2026-05-05 22:44 | 64.73040 | 11.19597 | 8003 ft | 159 kts | 39° |
| 2026-05-05 22:44 | 64.73841 | 11.21366 | 7805 ft | 158 kts | 39° |
| 2026-05-05 22:44 | 64.74643 | 11.23137 | 7615 ft | 158 kts | 39° |
| 2026-05-05 22:45 | 64.75437 | 11.24893 | 7426 ft | 157 kts | 39° |
| 2026-05-05 22:45 | 64.76232 | 11.26650 | 7225 ft | 157 kts | 39° |
| 2026-05-05 22:45 | 64.77026 | 11.28410 | 7035 ft | 156 kts | 38° |
| 2026-05-05 22:45 | 64.77814 | 11.30156 | 6843 ft | 156 kts | 39° |
| 2026-05-05 22:46 | 64.78603 | 11.31905 | 6658 ft | 156 kts | 38° |
| 2026-05-05 22:46 | 64.79388 | 11.33648 | 6478 ft | 155 kts | 39° |
| 2026-05-05 22:46 | 64.80166 | 11.35380 | 6268 ft | 154 kts | 38° |
| 2026-05-05 22:46 | 64.80942 | 11.37106 | 6010 ft | 154 kts | 38° |
| 2026-05-05 22:47 | 64.81712 | 11.38820 | 5786 ft | 153 kts | 38° |
| 2026-05-05 22:47 | 64.82486 | 11.40544 | 5570 ft | 153 kts | 38° |
| 2026-05-05 22:47 | 64.83245 | 11.42235 | 5400 ft | 152 kts | 38° |
| 2026-05-05 22:47 | 64.84020 | 11.43966 | 5256 ft | 151 kts | 38° |
| 2026-05-05 22:48 | 64.84783 | 11.45668 | 5039 ft | 151 kts | 38° |
| 2026-05-05 22:48 | 64.85542 | 11.47366 | 4805 ft | 150 kts | 38° |
| 2026-05-05 22:48 | 64.86285 | 11.49029 | 4611 ft | 149 kts | 38° |
| 2026-05-05 22:48 | 64.87037 | 11.50710 | 4392 ft | 149 kts | 38° |
| 2026-05-05 22:49 | 64.87544 | 11.51847 | 4234 ft | 149 kts | 38° |
| 2026-05-05 22:49 | 64.88531 | 11.54052 | 4001 ft | 144 kts | 38° |
| 2026-05-05 22:49 | 64.89015 | 11.55133 | 3998 ft | 140 kts | 38° |
| 2026-05-05 22:49 | 64.89720 | 11.56707 | 3996 ft | 138 kts | 38° |
| 2026-05-05 22:50 | 64.90396 | 11.58232 | 3988 ft | 130 kts | 38° |
| 2026-05-05 22:50 | 64.91040 | 11.59681 | 3992 ft | 127 kts | 38° |
| 2026-05-05 22:50 | 64.91678 | 11.61116 | 3988 ft | 126 kts | 38° |
| 2026-05-05 22:50 | 64.92311 | 11.62545 | 3991 ft | 125 kts | 38° |
| 2026-05-05 22:51 | 64.92949 | 11.63909 | 3986 ft | 120 kts | 26° |
| 2026-05-05 22:51 | 64.93702 | 11.64428 | 3999 ft | 110 kts | 354° |
| 2026-05-05 22:51 | 64.94418 | 11.63960 | 4003 ft | 107 kts | 326° |
| 2026-05-05 22:51 | 64.94922 | 11.62717 | 4001 ft | 106 kts | 298° |
| 2026-05-05 22:52 | 64.95245 | 11.61191 | 4004 ft | 103 kts | 298° |
| 2026-05-05 22:52 | 64.95568 | 11.59699 | 4000 ft | 104 kts | 298° |
| 2026-05-05 22:52 | 64.95903 | 11.58138 | 3998 ft | 108 kts | 298° |
| 2026-05-05 22:52 | 64.96242 | 11.56555 | 3998 ft | 108 kts | 298° |
| 2026-05-05 22:53 | 64.96577 | 11.54981 | 4002 ft | 108 kts | 298° |
| 2026-05-05 22:53 | 64.96918 | 11.53380 | 3999 ft | 108 kts | 298° |
| 2026-05-05 22:53 | 64.97255 | 11.51791 | 3999 ft | 108 kts | 298° |
| 2026-05-05 22:53 | 64.97579 | 11.50166 | 3966 ft | 113 kts | 286° |
| 2026-05-05 22:54 | 64.97473 | 11.48296 | 3834 ft | 123 kts | 243° |
| 2026-05-05 22:54 | 64.96886 | 11.46712 | 3526 ft | 138 kts | 230° |
| 2026-05-05 22:54 | 64.96186 | 11.44994 | 3122 ft | 151 kts | 230° |
| 2026-05-05 22:54 | 64.95464 | 11.43204 | 3002 ft | 145 kts | 231° |
| 2026-05-05 22:55 | 64.94795 | 11.41540 | 2994 ft | 135 kts | 231° |
| 2026-05-05 22:55 | 64.94177 | 11.39998 | 2992 ft | 124 kts | 231° |
| 2026-05-05 22:55 | 64.93621 | 11.38618 | 2991 ft | 109 kts | 232° |
| 2026-05-05 22:55 | 64.93119 | 11.37366 | 2988 ft | 103 kts | 232° |
| 2026-05-05 22:56 | 64.92637 | 11.36166 | 2985 ft | 99 kts | 233° |
| 2026-05-05 22:56 | 64.92157 | 11.34971 | 3001 ft | 106 kts | 233° |
| 2026-05-05 22:56 | 64.91618 | 11.33627 | 3004 ft | 120 kts | 232° |
| 2026-05-05 22:56 | 64.91025 | 11.32165 | 3006 ft | 127 kts | 231° |
| 2026-05-05 22:57 | 64.90402 | 11.30646 | 3008 ft | 129 kts | 231° |
| 2026-05-05 22:57 | 64.89800 | 11.29160 | 2936 ft | 116 kts | 233° |
| 2026-05-05 22:57 | 64.89295 | 11.27792 | 2775 ft | 105 kts | 237° |
| 2026-05-05 22:57 | 64.88856 | 11.26611 | 2608 ft | 93 kts | 230° |
| 2026-05-05 22:58 | 64.88358 | 11.25580 | 2298 ft | 97 kts | 226° |
| 2026-05-05 22:58 | 64.87906 | 11.24511 | 2069 ft | 88 kts | 233° |
| 2026-05-05 22:58 | 64.87497 | 11.23431 | 1895 ft | 89 kts | 234° |
| 2026-05-05 22:58 | 64.87091 | 11.22320 | 1696 ft | 91 kts | 232° |
| 2026-05-05 22:59 | 64.86687 | 11.21128 | 1421 ft | 91 kts | 240° |
| 2026-05-05 22:59 | 64.86269 | 11.20031 | 1189 ft | 93 kts | 225° |
| 2026-05-05 22:59 | 64.85838 | 11.18931 | 903 ft | 89 kts | 227° |
| 2026-05-05 22:59 | 64.85404 | 11.17919 | 717 ft | 88 kts | 226° |
| 2026-05-05 23:00 | 64.84538 | 11.16049 | 320 ft | 80 kts | 220° |
| 2026-05-05 23:00 | 64.84131 | 11.15195 | 121 ft | 74 kts | 220° |
| 2026-05-05 23:00 | 64.83772 | 11.14452 | 19 ft | 59 kts | 221° |
| 2026-05-05 23:01 | 64.83611 | 11.14120 | 22 ft | 18 kts | 221° |
| 2026-05-05 23:01 | 64.83527 | 11.13954 | 22 ft | 5 kts | 219° |
| 2026-05-05 23:01 | 64.83492 | 11.13875 | 22 ft | 6 kts | 348° |
| 2026-05-05 23:01 | 64.83572 | 11.14024 | 24 ft | 19 kts | 40° |
| 2026-05-05 23:02 | 64.83638 | 11.14161 | 21 ft | 13 kts | 43° |
| 2026-05-05 23:02 | 64.83741 | 11.14373 | 20 ft | 22 kts | 39° |
| 2026-05-05 23:02 | 64.83831 | 11.14550 | 22 ft | 12 kts | 35° |
| 2026-05-05 23:02 | 64.83867 | 11.14526 | 22 ft | 0 kts | 307° |
| 2026-05-05 23:03 | 64.83867 | 11.14525 | 22 ft | 1 kts | 306° |
| 2026-05-05 23:03 | 64.83896 | 11.14496 | 20 ft | 10 kts | 358° |
| 2026-05-05 23:03 | 64.83930 | 11.14550 | 20 ft | 0 kts | 51° |
| 2026-05-05 23:04 | 64.83952 | 11.14596 | 21 ft | 6 kts | 274° |
| 2026-05-05 23:04 | 64.83948 | 11.14582 | 21 ft | 0 kts | 223° |